• Join FlightAware (Why Join?)
  • Login
  • US Flag 
12:27AM EDT


 

Airport Tracker/Info


-or-


 

Live Flight TrackerFlight Track Log ✈ N425EM ✈ 24-Apr-2013 ✈ KGAD - KHGR

Flight Track Log - Related Links

Times and Time Zones

All times are in EDT time to prevent confusion due to time zone crossing. See the N425EM flight status page for this flight to view local times or setup timezone preferences in your user account.

Time Position Orientation Groundspeed Altitude Reporting Facility
EDT Latitude Longitude Course Direction KTS MPH feet Rate Location/Type
09:44AM 34.2072 -85.8072 47° Northeast 249 287 6,900  Level Atlanta Center
09:45AM 34.2510 -85.7321 47° Northeast  Level FlightAware Approximate
09:45AM 34.2478 -85.7553 47° Northeast 218 251 8,100  Level Atlanta Center
09:46AM 34.2922 -85.7033 44° Northeast 213 245 9,400 1,320 Climbing Atlanta Center
09:47AM 34.3369 -85.6489 45° Northeast 213 245 10,800 1,440 Climbing Atlanta Center
09:48AM 34.3792 -85.5942 47° Northeast 213 245 12,300 1,380 Climbing Atlanta Center
09:49AM 34.4239 -85.5422 44° Northeast 213 245 13,600 1,320 Climbing Atlanta Center
09:50AM 34.4661 -85.4850 48° Northeast 218 251 15,000 1,320 Climbing Atlanta Center
09:51AM 34.5128 -85.4303 44° Northeast 218 251 16,300 960 Climbing Atlanta Center
09:52AM 34.5614 -85.3706 45° Northeast 223 257 17,000 300 Climbing Atlanta Center
09:53AM 34.6142 -85.3008 47° Northeast 236 272 16,900  Descending Atlanta Center
09:54AM 34.6733 -85.2333 43° Northeast 265 305 17,000 660 Climbing Atlanta Center
09:55AM 34.7261 -85.1686 45° Northeast 273 314 18,300 1,200 Climbing Atlanta Center
09:56AM 34.7747 -85.1058 47° Northeast 268 308 19,400 1,080 Climbing Atlanta Center
09:57AM 34.8233 -85.0433 47° Northeast 260 299 20,500 1,140 Climbing Atlanta Center
09:58AM 34.8717 -84.9831 46° Northeast 255 293 21,700 720 Climbing Atlanta Center
09:59AM 34.9181 -84.9228 47° Northeast 250 288 22,000 120 Climbing Atlanta Center
10:00AM 34.9728 -84.8525 46° Northeast 255 293 22,000  Level Atlanta Center
10:01AM 35.0297 -84.7819 45° Northeast 271 312 22,000  Level Atlanta Center
10:02AM 35.0864 -84.7139 44° Northeast 276 318 22,000  Level Atlanta Center
10:03AM 35.1411 -84.6408 47° Northeast 276 318 22,000 180 Level Atlanta Center
10:04AM 35.1975 -84.5725 45° Northeast 281 323 22,400 480 Climbing Atlanta Center
10:05AM 35.2481 -84.5092 46° Northeast 270 311 23,000 300 Climbing Atlanta Center
10:06AM 35.3003 -84.4383 48° Northeast 270 311 23,000  Level Atlanta Center
10:07AM 35.3506 -84.3775 45° Northeast 270 311 23,000  Level Atlanta Center
10:08AM 35.4050 -84.3011 49° Northeast 275 316 23,000  Level Atlanta Center
10:09AM 35.4636 -84.2325 44° Northeast 280 322 23,000  Level Atlanta Center
10:10AM 35.5200 -84.1561 48° Northeast 280 322 23,000  Level Atlanta Center
10:11AM 35.5764 -84.0822 47° Northeast 285 328 23,000  Level Atlanta Center
10:12AM 35.6328 -84.0106 46° Northeast 290 334 23,000  Level Atlanta Center
10:13AM 35.6889 -83.9364 47° Northeast 290 334 23,000  Level Atlanta Center
10:14AM 35.7472 -83.8622 46° Northeast 290 334 23,000  Level Atlanta Center
10:15AM 35.8056 -83.7878 46° Northeast 296 341 23,000  Level Atlanta Center
10:16AM 35.8639 -83.7133 46° Northeast 296 341 23,000  Level Atlanta Center
10:17AM 35.9200 -83.6386 47° Northeast 296 341 23,000  Level Atlanta Center
10:18AM 35.9781 -83.5614 47° Northeast 296 341 23,000  Level Atlanta Center
10:19AM 36.0403 -83.4764 48° Northeast 290 334 23,000  Level Atlanta Center
10:20AM 36.0964 -83.4042 46° Northeast 290 334 23,000  Level Atlanta Center
10:21AM 36.1522 -83.3289 47° Northeast 290 334 23,000  Level Atlanta Center
10:22AM 36.2100 -83.2539 46° Northeast 290 334 23,000  Level Atlanta Center
10:23AM 36.2639 -83.1814 47° Northeast 290 334 23,000  Level Atlanta Center
10:24AM 36.3197 -83.1086 46° Northeast 290 334 23,000  Level Atlanta Center
10:25AM 36.3672 -83.0433 48° Northeast 290 334 23,000  Level Atlanta Center
10:26AM 36.4208 -82.9731 47° Northeast 290 334 23,000  Level Atlanta Center
10:27AM 36.4764 -82.9003 46° Northeast 290 334 23,000  Level Atlanta Center
10:28AM 36.5300 -82.8269 48° Northeast 290 334 23,000  Level Atlanta Center
10:29AM 36.5917 -82.7458 47° Northeast 290 334 23,000  Level Atlanta Center
10:30AM 36.6289 -82.6953 47° Northeast 289 333 23,000  Level Indianapolis Center
10:31AM 36.6922 -82.6089 48° Northeast 291 335 23,000  Level Indianapolis Center
10:32AM 36.7467 -82.5342 48° Northeast 294 338 23,000  Level Indianapolis Center
10:33AM 36.8036 -82.4617 46° Northeast 296 341 23,000  Level Indianapolis Center
10:34AM 36.8569 -82.3875 48° Northeast 289 333 23,000  Level Indianapolis Center
10:35AM 36.9108 -82.3111 49° Northeast 293 337 23,000  Level Indianapolis Center
10:36AM 36.9753 -82.2286 46° Northeast 286 329 23,000  Level Indianapolis Center
10:37AM 37.0269 -82.1525 50° Northeast 286 329 23,000  Level Indianapolis Center
10:38AM 37.0822 -82.0781 47° Northeast 288 331 23,000  Level Indianapolis Center
10:39AM 37.1358 -82.0058 47° Northeast 284 327 23,000  Level Indianapolis Center
10:40AM 37.1886 -81.9319 48° Northeast 283 326 23,000  Level Indianapolis Center
10:41AM 37.2442 -81.8581 47° Northeast 289 333 23,000  Level Indianapolis Center
10:42AM 37.2969 -81.7825 49° Northeast 288 331 23,000 -60 Level Indianapolis Center
10:43AM 37.3603 -81.6944 48° Northeast 290 334 22,900  Descending Indianapolis Center
10:44AM 37.4144 -81.6211 47° Northeast 286 329 23,000  Climbing Indianapolis Center
10:45AM 37.4669 -81.5444 49° Northeast 287 330 23,000  Level Indianapolis Center
10:46AM 37.5214 -81.4717 47° Northeast 283 326 23,000  Level Indianapolis Center
10:47AM 37.5717 -81.3981 49° Northeast 284 327 23,000  Level Indianapolis Center
10:48AM 37.6256 -81.3244 47° Northeast 291 335 23,000  Level Indianapolis Center
10:49AM 37.6892 -81.2344 48° Northeast 294 338 23,000  Level Indianapolis Center
10:50AM 37.7439 -81.1586 48° Northeast 298 343 23,000  Level Indianapolis Center
10:51AM 37.7572 -81.1369 52° Northeast 300 345 23,000  Level Washington Center
10:52AM 37.8083 -81.0644 48° Northeast 289 333 23,000  Level Washington Center
10:53AM 37.8708 -80.9769 48° Northeast 289 333 23,000  Level Washington Center
10:53AM 37.9078 -80.9233 49° Northeast 300 345 23,000  Level Indianapolis Center
10:54AM 37.9631 -80.8453 48° Northeast 298 343 23,000  Level Indianapolis Center
10:55AM 38.0267 -80.7506 50° Northeast 295 339 23,000  Level Indianapolis Center
10:57AM 38.0828 -80.6747 47° Northeast 294 338 23,000  Level Indianapolis Center
10:58AM 38.1375 -80.5936 49° Northeast 301 346 23,000 -360 Level Indianapolis Center
10:59AM 38.1936 -80.5136 48° Northeast 303 349 22,300 -600 Descending Indianapolis Center
11:00AM 38.2522 -80.4306 48° Northeast 312 359 21,800 -540 Descending Indianapolis Center
11:01AM 38.3092 -80.3444 50° Northeast 318 366 21,200 -600 Descending Indianapolis Center
11:02AM 38.3767 -80.2533 47° Northeast 311 358 20,600 -660 Descending Washington Center
11:03AM 38.4342 -80.1694 49° Northeast 311 358 19,900 -600 Descending Washington Center
11:04AM 38.4914 -80.0881 48° Northeast 311 358 19,400 -480 Descending Washington Center
11:05AM 38.5400 -80.0167 49° Northeast 299 344 19,000 -240 Descending Washington Center
11:06AM 38.5928 -79.9400 49° Northeast 299 344 19,000  Level Washington Center
11:07AM 38.6436 -79.8633 50° Northeast 288 331 19,000  Level Washington Center
11:08AM 38.6919 -79.7917 49° Northeast 277 319 19,000  Level Washington Center
11:09AM 38.7469 -79.7097 49° Northeast 277 319 19,000  Level Washington Center
11:10AM 38.7994 -79.6353 48° Northeast 272 313 19,000 -180 Level Washington Center
11:11AM 38.8436 -79.5603 53° Northeast 279 321 18,700 -720 Descending Washington Center
11:12AM 38.9006 -79.4808 47° Northeast 291 335 17,600 -1,140 Descending Washington Center
11:13AM 38.9575 -79.3983 48° Northeast 297 342 16,500 -1,020 Descending Washington Center
11:14AM 39.0100 -79.3156 51° Northeast 297 342 15,600 -840 Descending Washington Center
11:15AM 39.0647 -79.2356 49° Northeast 297 342 14,900 -780 Descending Washington Center
11:16AM 39.1150 -79.1550 51° Northeast 297 342 14,100 -480 Descending Washington Center
11:17AM 39.1672 -79.0800 48° Northeast 287 330 14,000 -60 Descending Washington Center
11:18AM 39.2150 -79.0072 50° Northeast 275 316 14,000 -420 Level Washington Center
11:19AM 39.2508 -78.9231 61° Northeast 270 311 13,200 -900 Descending Washington Center
11:20AM 39.2953 -78.8206 61° Northeast 275 316 12,200 -960 Descending Washington Center
11:21AM 39.3353 -78.7311 60° Northeast 281 323 11,300 -960 Descending Washington Center
11:22AM 39.3731 -78.6389 62° Northeast 281 323 10,300 -960 Descending Washington Center
11:23AM 39.4086 -78.5544 61° Northeast 276 318 9,400 -960 Descending Washington Center
11:24AM 39.4417 -78.4697 63° Northeast 271 312 8,400 -900 Descending Washington Center
11:25AM 39.4731 -78.3850 64° Northeast 265 305 7,600 -720 Descending Washington Center
11:26AM 39.4997 -78.3025 67° East 259 298 7,000 -300 Descending Washington Center
11:27AM 39.5286 -78.2308 62° Northeast 238 274 7,000  Level Washington Center
11:28AM 39.5508 -78.1592 68° East 224 258 7,000  Level Washington Center
11:29AM 39.5775 -78.0900 63° Northeast 214 246 7,000  Level Washington Center
11:30AM 39.6017 -78.0208 66° East 214 246 7,000  Level Washington Center
11:31AM 39.6258 -77.9569 64° Northeast 209 241 7,000 -240 Level Washington Center
11:32AM 39.6458 -77.8931 68° East 202 232 6,600 -540 Descending Washington Center
11:33AM 39.6578 -77.8178 78° East 202 232 6,000 -420 Descending Washington Center
11:34AM 39.6589 -77.7506 89° East 197 227 5,800 -540 Descending Washington Center
11:35AM 39.6622 -77.6753 87° East 197 227 5,000 -780 Descending Washington Center
11:36AM 39.6742 -77.6000 78° East 202 232 4,300 -600 Descending Washington Center
11:37AM 39.7081 -77.5606 42° Northeast 171 197 3,800 -720 Descending Washington Center
11:38AM 39.7217 -77.6122 289° West 72 83 2,900 -1,200 Descending Washington Center
11:39AM 39.7144 -77.6686 261° West 106 122 1,500 -960 Descending Washington Center
11:40AM 39.7139 -77.7117 269° West 124 143 1,000 -540 Descending Washington Center